EST,Max TemperatureF,Mean TemperatureF,Min TemperatureF,Max Dew PointF,MeanDew PointF,Min DewpointF,Max Humidity, Mean Humidity, Min Humidity, Max Sea Level PressureIn, Mean Sea Level PressureIn, Min Sea Level PressureIn, Max VisibilityMiles, Mean VisibilityMiles, Min VisibilityMiles, Max Wind SpeedMPH, Mean Wind SpeedMPH, Max Gust SpeedMPH,PrecipitationIn, CloudCover, Events, WindDirDegrees
2011-11-1,67,51,34,41,35,31,92,60,28,30.35,30.29,30.22,10,10,8,13,3,18,0.00,0,Fog,27
2011-11-2,67,50,33,43,37,30,92,63,34,30.43,30.35,30.30,10,10,6,10,2,13,0.00,0,Fog,100
2011-11-3,71,52,33,59,43,30,92,70,47,30.29,30.08,29.80,10,9,6,18,5,26,0.04,3,Rain,152
2011-11-4,64,57,49,61,50,43,93,75,56,30.07,29.83,29.73,10,10,5,25,10,36,0.07,7,Rain,295
2011-11-5,60,51,41,39,33,27,76,57,37,30.38,30.26,30.08,10,10,10,20,9,25,0.00,0,,33
2011-11-6,69,56,42,49,41,35,86,66,45,30.46,30.39,30.35,10,10,10,12,4,18,0.00,2,,19
2011-11-7,74,57,39,50,45,37,93,66,38,30.39,30.33,30.26,10,10,10,9,2,13,0.00,0,,19
2011-11-8,74,59,43,53,48,40,92,68,44,30.28,30.22,30.16,10,10,10,8,1,13,0.00,2,Fog,63
2011-11-9,75,58,40,53,46,39,93,67,41,30.17,30.09,29.98,10,7,0,7,1,12,0.00,2,Fog,292
2011-11-10,65,53,41,61,51,27,93,66,39,30.01,29.90,29.82,10,7,2,15,4,18,0.03,6,Rain,279
2011-11-11,58,46,34,32,24,17,76,49,21,30.24,30.14,30.02,10,10,9,15,5,20,0.00,0,,300
2011-11-12,67,48,29,33,28,23,85,52,19,30.34,30.28,30.24,10,10,9,13,3,16,0.00,1,Snow,214
2011-11-13,72,54,36,49,41,33,85,61,37,30.31,30.22,30.14,10,10,8,14,3,18,0.00,4,,194
2011-11-14,79,65,51,56,53,49,96,69,42,30.18,30.10,30.04,10,10,10,17,7,35,0.00,3,,212
2011-11-15,81,70,58,65,60,57,93,71,49,30.05,30.00,29.94,10,9,4,16,6,25,0.00,5,,206
2011-11-16,81,74,67,67,65,63,93,76,58,29.97,29.88,29.78,10,8,3,29,11,36,0.23,7,Rain-Thunderstorm,200
2011-11-17,69,56,43,65,50,27,87,63,38,30.35,30.00,29.81,10,9,2,28,7,37,0.03,6,Rain,306
2011-11-18,54,42,30,30,23,12,92,56,19,30.52,30.44,30.35,10,10,10,16,3,20,0.00,0,Fog,68
2011-11-19,64,47,29,47,37,26,86,65,43,30.46,30.39,30.33,10,10,10,10,3,12,0.00,4,,87
2011-11-20,66,58,50,63,56,47,100,84,67,30.38,30.31,30.26,10,5,0,6,0,8,0.05,7,Fog-Rain,292
2011-11-21,81,70,58,63,60,57,100,76,51,30.28,30.22,30.16,10,6,0,14,4,17,0.00,4,Fog,251
2011-11-22,80,67,53,63,58,51,93,69,45,30.20,30.09,29.94,10,9,4,21,7,26,0.00,4,,177
2011-11-23,74,61,48,66,56,39,100,68,35,30.20,29.94,29.87,10,9,2,23,11,30,0.69,5,Rain-Thunderstorm,263
2011-11-24,67,52,37,40,34,27,85,54,22,30.39,30.32,30.20,10,10,10,12,2,16,0.00,0,Fog,22
2011-11-25,69,51,32,39,32,27,89,55,21,30.42,30.36,30.28,10,10,1,8,1,14,0.00,1,,234
2011-11-26,71,54,37,52,44,34,92,70,47,30.37,30.29,30.22,10,10,9,12,2,14,0.00,5,,149
2011-11-27,74,67,59,58,54,52,78,62,46,30.22,30.11,30.00,10,10,10,22,6,28,0.00,8,,131
2011-11-28,75,61,46,65,59,44,93,79,64,29.98,29.87,29.78,10,7,0,24,9,32,0.53,7,Fog-Rain,150
2011-11-29,50,44,37,44,39,34,93,77,61,29.96,29.90,29.86,10,9,6,18,7,23,0.01,5,Rain,226
2011-11-30,58,46,33,39,35,31,92,68,43,30.14,30.02,29.94,10,9,6,13,4,16,0.00,1,,280